createdAt,value
2022-08-07T00:00:36.612Z,17.11
2022-08-07T00:03:08.978Z,17.12
2022-08-07T00:05:37.146Z,17.22
2022-08-07T00:08:08.092Z,17.11
2022-08-07T00:10:35.781Z,17.11
2022-08-07T00:13:25.540Z,17.09
2022-08-07T00:15:58.921Z,17.07
2022-08-07T00:18:29.681Z,16.99
2022-08-07T00:21:07.816Z,17.03
2022-08-07T00:23:39.562Z,17.02
2022-08-07T00:26:18.903Z,17.13
2022-08-07T00:28:57.297Z,16.88
2022-08-07T00:31:37.372Z,16.99
2022-08-07T00:34:08.718Z,16.85
2022-08-07T00:36:43.040Z,16.79
2022-08-07T00:39:12.825Z,16.75
2022-08-07T00:42:02.580Z,16.77
2022-08-07T00:44:33.681Z,16.80
2022-08-07T00:47:15.599Z,16.82
2022-08-07T00:50:20.234Z,16.96
2022-08-07T00:52:39.954Z,16.99
2022-08-07T00:55:10.348Z,16.98
2022-08-07T00:57:44.394Z,16.98
2022-08-07T01:00:25.742Z,16.99
2022-08-07T01:02:52.564Z,16.98
2022-08-07T01:05:24.644Z,17.09
2022-08-07T01:07:51.633Z,17.10
2022-08-07T01:10:18.976Z,17.14
2022-08-07T01:12:54.024Z,17.02
2022-08-07T01:15:36.042Z,17.28
2022-08-07T01:18:10.558Z,17.12
2022-08-07T01:20:45.135Z,17.43
2022-08-07T01:23:38.012Z,17.42
2022-08-07T01:26:12.242Z,17.24
2022-08-07T01:28:46.060Z,17.37
2022-08-07T01:31:18.090Z,17.27
2022-08-07T01:33:56.283Z,17.32
2022-08-07T01:36:33.239Z,17.38
2022-08-07T01:39:01.557Z,17.55
2022-08-07T01:41:37.265Z,17.43
2022-08-07T01:44:05.634Z,17.59
2022-08-07T01:46:33.142Z,17.61
2022-08-07T01:49:00.282Z,17.92
2022-08-07T01:52:01.177Z,17.73
2022-08-07T01:54:33.326Z,17.71
2022-08-07T01:57:20.730Z,17.99
2022-08-07T02:00:13.082Z,18.10
2022-08-07T02:03:11.640Z,17.94
2022-08-07T02:06:00.898Z,18.05
2022-08-07T02:08:30.949Z,17.97
2022-08-07T02:11:00.108Z,18.17
2022-08-07T02:13:56.863Z,18.01
2022-08-07T02:16:33.093Z,18.26
2022-08-07T02:19:05.740Z,18.53
2022-08-07T02:21:55.532Z,18.19
2022-08-07T02:24:26.245Z,18.12
2022-08-07T02:27:06.730Z,18.37
2022-08-07T02:29:43.338Z,18.24
2022-08-07T02:32:23.432Z,18.33
2022-08-07T02:35:01.007Z,18.26
2022-08-07T02:37:34.193Z,18.24
2022-08-07T02:40:31.222Z,18.48
2022-08-07T02:42:54.368Z,18.28
2022-08-07T02:45:58.068Z,18.22
2022-08-07T02:48:15.460Z,18.41
2022-08-07T02:50:45.224Z,18.23
2022-08-07T02:53:18.196Z,18.28
2022-08-07T02:56:04.025Z,18.38
2022-08-07T02:58:34.040Z,18.33
2022-08-07T03:01:06.077Z,18.14
2022-08-07T03:03:49.821Z,18.32
2022-08-07T03:06:26.222Z,18.22
2022-08-07T03:09:03.141Z,18.22
2022-08-07T03:11:38.846Z,18.12
2022-08-07T03:14:09.292Z,18.29
2022-08-07T03:16:38.498Z,18.23
2022-08-07T03:19:08.346Z,18.17
2022-08-07T03:21:37.354Z,18.15
2022-08-07T03:24:20.116Z,18.18
2022-08-07T03:26:58.900Z,18.07
2022-08-07T03:29:49.553Z,18.19
2022-08-07T03:32:23.202Z,18.13
2022-08-07T03:35:01.141Z,18.24
2022-08-07T03:37:46.408Z,18.13
2022-08-07T03:40:23.844Z,18.07
2022-08-07T03:43:01.102Z,18.07
2022-08-07T03:45:31.495Z,17.87
2022-08-07T03:48:03.144Z,17.94
2022-08-07T03:50:30.503Z,17.91
2022-08-07T03:53:02.818Z,18.21
2022-08-07T03:55:58.379Z,18.05
2022-08-07T03:59:05.042Z,18.27
2022-08-07T04:01:11.724Z,18.29
2022-08-07T04:03:53.781Z,18.43
2022-08-07T04:06:37.595Z,18.12
2022-08-07T04:09:08.459Z,18.17
2022-08-07T04:12:28.182Z,18.10
2022-08-07T04:14:36.718Z,18.01
2022-08-07T04:17:20.050Z,18.32
2022-08-07T04:19:52.050Z,18.11
2022-08-07T04:22:29.083Z,18.28
2022-08-07T04:25:12.808Z,18.38
2022-08-07T04:27:44.388Z,18.16
2022-08-07T04:30:36.069Z,18.27
2022-08-07T04:33:01.605Z,18.10
2022-08-07T04:35:38.604Z,18.10
2022-08-07T04:38:07.754Z,18.16
2022-08-07T04:40:43.948Z,18.31
2022-08-07T04:44:09.577Z,18.07
2022-08-07T04:46:25.774Z,18.00
2022-08-07T04:49:25.575Z,18.40
2022-08-07T04:52:18.358Z,18.19
2022-08-07T04:54:59.982Z,18.13
2022-08-07T04:58:15.665Z,18.16
2022-08-07T05:00:41.144Z,18.27
2022-08-07T05:04:00.085Z,18.24
2022-08-07T05:06:19.393Z,18.27
2022-08-07T05:09:03.246Z,18.42
2022-08-07T05:11:56.816Z,18.17
2022-08-07T05:14:52.378Z,18.38
2022-08-07T05:17:51.898Z,18.28
2022-08-07T05:20:16.427Z,18.40
2022-08-07T05:22:47.566Z,18.39
2022-08-07T05:25:26.278Z,18.55
2022-08-07T05:28:20.973Z,18.35
2022-08-07T05:30:52.471Z,18.47
2022-08-07T05:33:20.772Z,18.47
2022-08-07T05:35:55.499Z,18.50
2022-08-07T05:39:01.014Z,18.45
2022-08-07T05:41:14.202Z,18.46
2022-08-07T05:44:07.903Z,18.54
2022-08-07T05:46:40.040Z,18.73
2022-08-07T05:49:14.717Z,18.91
2022-08-07T05:51:52.589Z,18.58
2022-08-07T05:54:31.355Z,18.54
2022-08-07T05:57:08.364Z,18.71
2022-08-07T05:59:57.422Z,18.61
2022-08-07T06:02:29.053Z,18.68
2022-08-07T06:05:10.729Z,18.56
2022-08-07T06:08:29.576Z,18.62
2022-08-07T06:10:46.207Z,18.62
2022-08-07T06:13:18.983Z,18.73
2022-08-07T06:15:59.292Z,19.04
2022-08-07T06:18:32.358Z,18.93
2022-08-07T06:22:14.760Z,19.02
2022-08-07T06:24:50.730Z,19.03
2022-08-07T06:26:41.972Z,18.98
2022-08-07T06:29:10.430Z,18.97
2022-08-07T06:31:46.936Z,19.08
2022-08-07T06:34:19.742Z,18.86
2022-08-07T06:36:48.291Z,19.08
2022-08-07T06:40:13.585Z,18.90
2022-08-07T06:42:19.701Z,19.16
2022-08-07T06:45:01.552Z,19.08
2022-08-07T06:47:28.638Z,19.19
2022-08-07T06:50:15.166Z,19.47
2022-08-07T06:52:53.004Z,19.33
2022-08-07T06:55:33.101Z,19.68
2022-08-07T06:58:16.660Z,19.65
2022-08-07T07:00:44.729Z,19.51
2022-08-07T07:03:13.985Z,19.53
2022-08-07T07:06:02.739Z,19.74
2022-08-07T07:08:31.332Z,19.58
2022-08-07T07:11:14.088Z,20.33
2022-08-07T07:13:58.370Z,20.70
2022-08-07T07:16:45.163Z,20.66
2022-08-07T07:19:54.603Z,20.67
2022-08-07T07:22:32.269Z,20.43
2022-08-07T07:25:14.146Z,20.64
2022-08-07T07:28:42.157Z,20.75
2022-08-07T07:31:04.819Z,20.43
2022-08-07T07:33:36.311Z,20.64
2022-08-07T07:36:12.569Z,20.40
2022-08-07T07:38:42.101Z,20.62
2022-08-07T07:41:16.796Z,20.42
2022-08-07T07:44:14.787Z,20.75
2022-08-07T07:46:54.693Z,20.36
2022-08-07T07:50:34.443Z,20.73
2022-08-07T07:52:15.865Z,20.55
2022-08-07T07:54:50.491Z,20.69
2022-08-07T07:57:52.361Z,21.09
2022-08-07T08:00:11.207Z,20.84
2022-08-07T08:03:04.522Z,20.75
2022-08-07T08:05:42.834Z,20.89
2022-08-07T08:08:34.528Z,20.76
2022-08-07T08:11:01.047Z,20.95
2022-08-07T08:13:36.653Z,21.14
2022-08-07T08:16:19.901Z,21.13
2022-08-07T08:18:55.036Z,20.85
2022-08-07T08:21:55.829Z,21.00
2022-08-07T08:24:57.365Z,21.19
2022-08-07T08:27:37.286Z,21.25
2022-08-07T08:30:17.329Z,21.14
2022-08-07T08:33:00.088Z,21.50
2022-08-07T08:35:39.604Z,21.70
2022-08-07T08:38:20.757Z,22.18
2022-08-07T08:41:02.991Z,22.43
2022-08-07T08:43:42.660Z,22.06
2022-08-07T08:46:41.058Z,22.64
2022-08-07T08:49:32.877Z,22.54
2022-08-07T08:52:22.100Z,21.88
2022-08-07T08:54:55.887Z,22.17
2022-08-07T08:57:45.198Z,22.09
2022-08-07T09:00:13.949Z,22.66
2022-08-07T09:02:58.770Z,22.28
2022-08-07T09:05:53.845Z,22.40
2022-08-07T09:08:39.261Z,22.73
2022-08-07T09:11:24.251Z,22.31
2022-08-07T09:14:18.792Z,22.13
2022-08-07T09:17:34.039Z,22.43
2022-08-07T09:20:42.045Z,22.30
2022-08-07T09:24:31.402Z,22.20
2022-08-07T09:26:53.291Z,22.10
2022-08-07T09:30:03.929Z,22.91
2022-08-07T09:32:52.916Z,23.00
2022-08-07T09:36:02.889Z,22.96
2022-08-07T09:38:39.191Z,23.08
2022-08-07T09:41:36.279Z,22.69
2022-08-07T09:44:30.034Z,23.16
2022-08-07T09:47:49.987Z,23.26
2022-08-07T09:50:20.085Z,23.59
2022-08-07T09:53:00.414Z,23.09
2022-08-07T09:56:13.791Z,23.60
2022-08-07T09:58:55.417Z,23.17
2022-08-07T10:01:52.419Z,24.56
2022-08-07T10:04:53.317Z,24.50
2022-08-07T10:08:00.984Z,24.07
2022-08-07T10:12:00.099Z,23.73
2022-08-07T10:14:30.520Z,23.32
2022-08-07T10:18:01.455Z,23.36
2022-08-07T10:20:59.135Z,23.25
2022-08-07T10:24:06.812Z,23.26
2022-08-07T10:26:40.905Z,23.85
2022-08-07T10:29:32.132Z,24.43
2022-08-07T10:32:50.960Z,24.90
2022-08-07T10:35:56.601Z,24.54
2022-08-07T10:38:54.269Z,24.61
2022-08-07T10:41:51.292Z,24.04
2022-08-07T10:44:16.837Z,24.55
2022-08-07T10:46:52.230Z,24.03
2022-08-07T10:50:07.113Z,24.07
2022-08-07T10:52:55.713Z,24.39
2022-08-07T10:55:38.338Z,24.93
2022-08-07T10:58:14.722Z,24.72
2022-08-07T11:00:55.993Z,24.23
2022-08-07T11:03:52.551Z,25.01
2022-08-07T11:06:53.917Z,25.10
2022-08-07T11:10:09.859Z,24.65
2022-08-07T11:12:44.014Z,24.69
2022-08-07T11:15:31.457Z,24.92
2022-08-07T11:18:32.853Z,25.08
2022-08-07T11:21:24.861Z,24.81
2022-08-07T11:24:04.192Z,24.66
2022-08-07T11:26:48.260Z,24.76
2022-08-07T11:29:48.355Z,24.51
2022-08-07T11:32:45.746Z,24.50
2022-08-07T11:35:26.888Z,25.28
2022-08-07T11:38:12.788Z,25.70
2022-08-07T11:40:56.279Z,25.51
2022-08-07T11:43:54.491Z,25.12
2022-08-07T11:46:39.908Z,26.29
2022-08-07T11:50:18.564Z,24.95
2022-08-07T11:52:59.918Z,24.83
2022-08-07T11:56:26.049Z,25.33
2022-08-07T11:58:49.972Z,25.63
2022-08-07T12:02:00.791Z,25.66
2022-08-07T12:04:34.249Z,25.55
2022-08-07T12:07:23.593Z,25.75
2022-08-07T12:10:06.897Z,25.58
2022-08-07T12:12:42.928Z,25.18
2022-08-07T12:15:46.134Z,25.72
2022-08-07T12:18:29.740Z,24.82
2022-08-07T12:22:35.933Z,25.31
2022-08-07T12:25:02.281Z,25.90
2022-08-07T12:28:09.400Z,26.19
2022-08-07T12:30:34.954Z,24.92
2022-08-07T12:33:18.595Z,25.82
2022-08-07T12:35:48.653Z,25.87
2022-08-07T12:38:38.605Z,26.06
2022-08-07T12:41:11.570Z,25.72
2022-08-07T12:44:04.552Z,25.97
2022-08-07T12:47:03.510Z,26.32
2022-08-07T12:49:56.679Z,26.83
2022-08-07T12:52:59.483Z,26.59
2022-08-07T12:56:02.958Z,25.92
2022-08-07T12:58:39.251Z,25.73
2022-08-07T13:01:08.884Z,26.07
2022-08-07T13:04:02.756Z,25.53
2022-08-07T13:06:36.534Z,25.39
2022-08-07T13:10:20.354Z,25.18
2022-08-07T13:12:49.548Z,24.98
2022-08-07T13:15:39.760Z,24.87
2022-08-07T13:18:28.964Z,24.42
2022-08-07T13:21:37.797Z,24.53
2022-08-07T13:24:25.843Z,24.95
2022-08-07T13:27:05.874Z,24.77
2022-08-07T13:29:58.753Z,25.20
2022-08-07T13:32:41.242Z,24.72
2022-08-07T13:35:21.486Z,24.27
2022-08-07T13:38:04.199Z,24.38
2022-08-07T13:40:42.333Z,24.70
2022-08-07T13:43:15.439Z,24.65
2022-08-07T13:46:11.455Z,24.98
2022-08-07T13:48:38.794Z,24.83
2022-08-07T13:51:27.352Z,25.18
2022-08-07T13:54:00.826Z,24.69
2022-08-07T13:56:52.040Z,25.02
2022-08-07T13:59:27.233Z,24.64
2022-08-07T14:02:10.609Z,25.12
2022-08-07T14:04:54.579Z,24.59
2022-08-07T14:07:24.657Z,24.52
2022-08-07T14:10:21.599Z,24.87
2022-08-07T14:12:54.907Z,25.40
2022-08-07T14:15:35.907Z,25.33
2022-08-07T14:18:27.489Z,25.39
2022-08-07T14:22:41.081Z,26.66
2022-08-07T14:24:06.524Z,25.67
2022-08-07T14:26:40.992Z,25.98
2022-08-07T14:30:08.194Z,25.70
2022-08-07T14:32:10.592Z,25.96
2022-08-07T14:34:47.209Z,26.37
2022-08-07T14:37:17.522Z,26.10
2022-08-07T14:40:16.779Z,25.91
2022-08-07T14:43:00.637Z,26.58
2022-08-07T14:48:19.643Z,26.58
2022-08-07T14:50:56.350Z,27.19
2022-08-07T14:54:08.892Z,27.89
2022-08-07T14:56:15.963Z,27.09
2022-08-07T14:59:02.192Z,26.35
2022-08-07T15:01:42.472Z,27.91
2022-08-07T15:04:18.975Z,27.49
2022-08-07T15:06:47.738Z,26.68
2022-08-07T15:09:58.797Z,26.83
2022-08-07T15:12:25.841Z,26.98
2022-08-07T15:15:07.752Z,28.07
2022-08-07T15:17:54.847Z,29.05
2022-08-07T15:23:20.736Z,31.52
2022-08-07T15:25:53.696Z,33.93
2022-08-07T15:28:34.842Z,31.64
2022-08-07T15:31:13.105Z,31.30
2022-08-07T15:34:02.506Z,29.71
2022-08-07T15:39:19.813Z,29.63
2022-08-07T15:44:53.439Z,28.74
2022-08-07T15:47:21.901Z,28.66
2022-08-07T15:53:12.869Z,31.43
2022-08-07T15:55:53.770Z,30.14
2022-08-07T15:58:37.452Z,31.10
2022-08-07T16:01:12.517Z,31.53
2022-08-07T16:03:47.242Z,33.00
2022-08-07T16:06:34.406Z,33.47
2022-08-07T16:09:07.772Z,30.11
2022-08-07T16:11:52.534Z,30.91
2022-08-07T16:14:59.177Z,31.10
2022-08-07T16:18:02.851Z,29.26
2022-08-07T16:20:55.251Z,29.22
2022-08-07T16:24:34.305Z,29.10
2022-08-07T16:27:19.120Z,28.13
2022-08-07T16:30:09.210Z,27.77
2022-08-07T16:32:54.153Z,26.40
2022-08-07T16:35:56.817Z,27.01
2022-08-07T16:38:38.976Z,26.78
2022-08-07T16:41:54.114Z,25.53
2022-08-07T16:44:46.271Z,25.90
2022-08-07T16:47:51.462Z,25.52
2022-08-07T16:50:48.280Z,25.35
2022-08-07T16:54:06.054Z,25.27
2022-08-07T16:56:38.773Z,24.98
2022-08-07T16:59:47.111Z,24.93
2022-08-07T17:02:52.918Z,24.83
2022-08-07T17:06:19.728Z,25.67
2022-08-07T17:09:10.880Z,24.65
2022-08-07T17:12:04.728Z,24.59
2022-08-07T17:14:37.918Z,24.79
2022-08-07T17:17:14.246Z,24.59
2022-08-07T17:20:01.488Z,24.39
2022-08-07T17:22:55.145Z,24.50
2022-08-07T17:25:47.184Z,24.47
2022-08-07T17:28:31.522Z,24.42
2022-08-07T17:31:16.149Z,24.13
2022-08-07T17:34:17.871Z,23.77
2022-08-07T17:36:59.754Z,23.47
2022-08-07T17:39:57.966Z,23.36
2022-08-07T17:42:29.968Z,23.70
2022-08-07T17:44:58.840Z,23.32
2022-08-07T17:47:42.755Z,23.68
2022-08-07T17:50:19.443Z,23.49
2022-08-07T17:52:52.450Z,23.56
2022-08-07T17:55:55.592Z,23.75
2022-08-07T17:58:46.325Z,23.36
2022-08-07T18:01:24.936Z,23.35
2022-08-07T18:04:34.721Z,23.64
2022-08-07T18:07:20.397Z,23.28
2022-08-07T18:10:05.579Z,23.17
2022-08-07T18:13:11.659Z,23.32
2022-08-07T18:15:58.213Z,23.08
2022-08-07T18:21:01.263Z,23.30
2022-08-07T18:21:51.627Z,23.28
2022-08-07T18:24:34.429Z,23.07
2022-08-07T18:27:17.295Z,23.42
2022-08-07T18:30:05.749Z,23.23
2022-08-07T18:32:47.139Z,22.79
2022-08-07T18:35:28.723Z,22.98
2022-08-07T18:38:55.109Z,22.39
2022-08-07T18:41:45.804Z,22.44
2022-08-07T18:45:09.213Z,22.18
2022-08-07T18:47:44.594Z,22.20
2022-08-07T18:50:46.764Z,22.05
2022-08-07T18:53:46.529Z,22.03
2022-08-07T18:56:18.471Z,21.72
2022-08-07T18:59:09.857Z,21.58
2022-08-07T19:02:32.811Z,21.43
2022-08-07T19:05:15.823Z,21.51
2022-08-07T19:08:06.164Z,21.44
2022-08-07T19:10:51.204Z,21.32
2022-08-07T19:13:50.185Z,21.44
2022-08-07T19:17:01.106Z,21.50
2022-08-07T19:19:37.207Z,21.29
2022-08-07T19:22:31.017Z,21.20
2022-08-07T19:25:06.385Z,21.19
2022-08-07T19:30:55.674Z,21.02
2022-08-07T19:31:00.299Z,21.11
2022-08-07T19:33:18.865Z,21.08
2022-08-07T19:36:02.265Z,20.88
2022-08-07T19:38:32.611Z,20.89
2022-08-07T19:41:00.826Z,20.71
2022-08-07T19:43:48.980Z,20.38
2022-08-07T19:46:26.576Z,20.39
2022-08-07T19:49:08.433Z,20.28
2022-08-07T19:51:52.293Z,20.05
2022-08-07T19:54:35.261Z,20.10
2022-08-07T19:58:02.301Z,19.90
2022-08-07T20:00:10.434Z,19.89
2022-08-07T20:02:52.308Z,19.94
2022-08-07T20:05:28.120Z,19.73
2022-08-07T20:08:02.173Z,19.66
2022-08-07T20:10:37.839Z,19.34
2022-08-07T20:13:27.338Z,19.49
2022-08-07T20:16:02.783Z,19.21
2022-08-07T20:18:33.708Z,19.18
2022-08-07T20:21:21.522Z,19.10
2022-08-07T20:23:57.877Z,18.90
2022-08-07T20:26:38.569Z,19.11
2022-08-07T20:29:47.189Z,19.09
2022-08-07T20:32:03.157Z,18.89
2022-08-07T20:34:49.247Z,18.90
2022-08-07T20:37:25.716Z,18.67
2022-08-07T20:40:03.095Z,18.67
2022-08-07T20:42:33.590Z,18.58
2022-08-07T20:45:01.412Z,18.81
2022-08-07T20:47:55.984Z,18.70
2022-08-07T20:50:22.247Z,18.42
2022-08-07T20:52:50.389Z,18.49
2022-08-07T20:55:23.663Z,18.51
2022-08-07T20:58:02.612Z,18.49
2022-08-07T21:00:42.953Z,18.51
2022-08-07T21:03:15.666Z,18.49
2022-08-07T21:06:12.298Z,18.51
2022-08-07T21:09:13.620Z,18.36
2022-08-07T21:11:50.072Z,18.38
2022-08-07T21:14:33.318Z,17.99
2022-08-07T21:18:06.521Z,18.12
2022-08-07T21:20:04.931Z,18.15
2022-08-07T21:22:56.194Z,17.98
2022-08-07T21:25:56.423Z,18.01
2022-08-07T21:28:49.703Z,17.96
2022-08-07T21:31:49.454Z,17.90
2022-08-07T21:34:48.885Z,17.93
2022-08-07T21:37:57.314Z,17.99
2022-08-07T21:40:38.431Z,18.00
2022-08-07T21:43:15.121Z,18.00
2022-08-07T21:46:10.079Z,17.59
2022-08-07T21:49:21.014Z,17.61
2022-08-07T21:52:03.965Z,17.54
2022-08-07T21:55:03.371Z,17.54
2022-08-07T21:57:54.948Z,17.44
2022-08-07T22:00:25.734Z,17.35
2022-08-07T22:03:16.698Z,17.44
2022-08-07T22:06:30.408Z,17.49
2022-08-07T22:09:08.012Z,17.28
2022-08-07T22:12:05.665Z,17.28
2022-08-07T22:14:38.933Z,17.34
2022-08-07T22:17:35.757Z,17.17
2022-08-07T22:20:22.988Z,17.24
2022-08-07T22:22:57.311Z,16.94
2022-08-07T22:25:51.937Z,17.12
2022-08-07T22:28:52.904Z,17.08
2022-08-07T22:31:59.201Z,17.06
2022-08-07T22:34:52.979Z,16.91
2022-08-07T22:38:03.002Z,16.96
2022-08-07T22:40:28.494Z,17.06
2022-08-07T22:43:07.330Z,16.82
2022-08-07T22:46:21.341Z,16.85
2022-08-07T22:48:56.309Z,16.86
2022-08-07T22:51:54.134Z,16.93
2022-08-07T22:55:23.056Z,16.88
2022-08-07T22:58:11.659Z,16.91
2022-08-07T23:01:06.294Z,16.85
2022-08-07T23:03:58.898Z,16.75
2022-08-07T23:06:32.951Z,16.76
2022-08-07T23:10:04.947Z,16.83
2022-08-07T23:12:32.854Z,16.53
2022-08-07T23:15:07.678Z,16.55
2022-08-07T23:17:45.178Z,16.56
2022-08-07T23:20:52.602Z,16.59
2022-08-07T23:24:05.608Z,16.52
2022-08-07T23:27:13.466Z,16.56
2022-08-07T23:30:35.958Z,16.53
2022-08-07T23:34:36.540Z,16.53
2022-08-07T23:36:30.782Z,16.48
2022-08-07T23:39:22.185Z,16.45
2022-08-07T23:42:09.558Z,16.51
2022-08-07T23:44:54.610Z,16.37
2022-08-07T23:47:50.977Z,16.30
2022-08-07T23:50:49.643Z,16.34
2022-08-07T23:53:51.530Z,16.31
2022-08-07T23:56:41.702Z,16.26
